Terminal Aerodrome Forecast
Issued by NWS

Home | Current Version | Previous Version | Text Only | Print | Product List | Glossary On
Versions: 1 2 3 4 5 6 7 8 9 10 11 12 13
000
FTUS45 KTFX 232320
TAFBZN
TAF
KBZN 232320Z 2400/2424 34010KT P6SM SCT070 BKN110
     FM240200 VRB06KT P6SM SCT090
     FM241000 VRB06KT P6SM VCSH SCT040 BKN060
     FM241800 35010KT P6SM VCSH SCT045 BKN070 PROB30 2420/2424 -TSRA
      BKN040CB=

USA.gov is the U.S. government's official web portal to all federal, state and local government web resources and services.